sensor_id;sensor_type;location;lat;lon;timestamp;pressure;altitude;pressure_sealevel;temperature;humidity
47897;BME280;39629;51.400;5.494;2022-12-11T00:04:57;101011.59;;;-0.37;100.00
47897;BME280;39629;51.400;5.494;2022-12-11T00:10:01;101016.91;;;-0.33;100.00
47897;BME280;39629;51.400;5.494;2022-12-11T00:15:03;101005.69;;;-0.34;100.00
47897;BME280;39629;51.400;5.494;2022-12-11T00:20:06;101011.97;;;-0.29;100.00
47897;BME280;39629;51.400;5.494;2022-12-11T00:25:09;101001.69;;;-0.27;100.00
47897;BME280;39629;51.400;5.494;2022-12-11T00:30:12;101002.56;;;-0.27;100.00
47897;BME280;39629;51.400;5.494;2022-12-11T00:35:13;100997.31;;;-0.28;100.00
47897;BME280;39629;51.400;5.494;2022-12-11T00:40:16;101002.63;;;-0.25;100.00
47897;BME280;39629;51.400;5.494;2022-12-11T00:45:18;101003.53;;;-0.25;100.00
47897;BME280;39629;51.400;5.494;2022-12-11T00:50:20;101004.50;;;-0.21;100.00
47897;BME280;39629;51.400;5.494;2022-12-11T00:55:23;101001.19;;;-0.19;100.00
47897;BME280;39629;51.400;5.494;2022-12-11T01:00:27;100998.41;;;-0.23;100.00
47897;BME280;39629;51.400;5.494;2022-12-11T01:05:29;100994.72;;;-0.28;100.00
47897;BME280;39629;51.400;5.494;2022-12-11T01:10:33;100997.66;;;-0.21;100.00
47897;BME280;39629;51.400;5.494;2022-12-11T01:15:40;101000.88;;;-0.26;100.00
47897;BME280;39629;51.400;5.494;2022-12-11T01:20:42;100995.88;;;-0.22;100.00
47897;BME280;39629;51.400;5.494;2022-12-11T01:25:45;100998.53;;;-0.20;100.00
47897;BME280;39629;51.400;5.494;2022-12-11T01:30:46;101000.31;;;-0.19;100.00
47897;BME280;39629;51.400;5.494;2022-12-11T01:35:48;100990.22;;;-0.13;100.00
47897;BME280;39629;51.400;5.494;2022-12-11T01:40:51;100989.41;;;-0.12;100.00
47897;BME280;39629;51.400;5.494;2022-12-11T01:45:53;100990.97;;;-0.15;100.00
47897;BME280;39629;51.400;5.494;2022-12-11T01:50:57;100985.16;;;-0.10;100.00
47897;BME280;39629;51.400;5.494;2022-12-11T01:56:01;100981.88;;;-0.06;100.00
47897;BME280;39629;51.400;5.494;2022-12-11T02:01:03;100985.03;;;-0.13;100.00
47897;BME280;39629;51.400;5.494;2022-12-11T02:06:05;100987.84;;;-0.08;100.00
47897;BME280;39629;51.400;5.494;2022-12-11T02:11:11;100988.66;;;-0.09;100.00
47897;BME280;39629;51.400;5.494;2022-12-11T02:16:20;100991.50;;;-0.03;100.00
47897;BME280;39629;51.400;5.494;2022-12-11T02:21:27;100988.09;;;-0.02;100.00
47897;BME280;39629;51.400;5.494;2022-12-11T02:26:49;100981.13;;;-0.03;100.00
47897;BME280;39629;51.400;5.494;2022-12-11T02:31:59;100973.31;;;-0.05;100.00
47897;BME280;39629;51.400;5.494;2022-12-11T02:37:06;100980.28;;;-0.04;100.00
47897;BME280;39629;51.400;5.494;2022-12-11T02:42:11;100979.56;;;0.01;100.00
47897;BME280;39629;51.400;5.494;2022-12-11T02:47:16;100978.88;;;0.05;100.00
47897;BME280;39629;51.400;5.494;2022-12-11T02:52:21;100973.44;;;-0.02;100.00
47897;BME280;39629;51.400;5.494;2022-12-11T02:57:24;100973.72;;;0.05;100.00
47897;BME280;39629;51.400;5.494;2022-12-11T03:02:31;100971.94;;;0.04;100.00
47897;BME280;39629;51.400;5.494;2022-12-11T03:07:34;100968.41;;;0.02;100.00
47897;BME280;39629;51.400;5.494;2022-12-11T03:12:39;100964.19;;;0.04;100.00
47897;BME280;39629;51.400;5.494;2022-12-11T03:17:51;100956.53;;;0.07;100.00
47897;BME280;39629;51.400;5.494;2022-12-11T03:23:00;100951.34;;;0.07;100.00
47897;BME280;39629;51.400;5.494;2022-12-11T03:28:09;100958.59;;;0.14;100.00
47897;BME280;39629;51.400;5.494;2022-12-11T03:33:18;100958.69;;;0.17;100.00
47897;BME280;39629;51.400;5.494;2022-12-11T03:38:23;100951.50;;;0.10;100.00
47897;BME280;39629;51.400;5.494;2022-12-11T03:43:29;100942.91;;;0.11;100.00
47897;BME280;39629;51.400;5.494;2022-12-11T03:48:37;100938.00;;;0.17;100.00
47897;BME280;39629;51.400;5.494;2022-12-11T03:53:41;100928.34;;;0.13;100.00
47897;BME280;39629;51.400;5.494;2022-12-11T03:58:44;100934.28;;;0.10;100.00
47897;BME280;39629;51.400;5.494;2022-12-11T04:03:47;100927.38;;;0.11;100.00
47897;BME280;39629;51.400;5.494;2022-12-11T04:08:48;100925.75;;;0.13;100.00
47897;BME280;39629;51.400;5.494;2022-12-11T04:13:50;100921.28;;;0.09;100.00
47897;BME280;39629;51.400;5.494;2022-12-11T04:19:08;100926.56;;;0.12;100.00
47897;BME280;39629;51.400;5.494;2022-12-11T04:24:27;100933.31;;;0.08;100.00
47897;BME280;39629;51.400;5.494;2022-12-11T04:29:29;100925.38;;;0.04;100.00
47897;BME280;39629;51.400;5.494;2022-12-11T04:34:32;100920.25;;;0.05;100.00
47897;BME280;39629;51.400;5.494;2022-12-11T04:39:33;100929.84;;;0.08;100.00
47897;BME280;39629;51.400;5.494;2022-12-11T04:44:35;100927.91;;;0.02;100.00
47897;BME280;39629;51.400;5.494;2022-12-11T04:49:38;100918.41;;;0.03;100.00
47897;BME280;39629;51.400;5.494;2022-12-11T04:54:39;100922.72;;;0.02;100.00
47897;BME280;39629;51.400;5.494;2022-12-11T04:59:41;100910.84;;;0.07;100.00
47897;BME280;39629;51.400;5.494;2022-12-11T05:04:44;100908.13;;;0.04;100.00
47897;BME280;39629;51.400;5.494;2022-12-11T05:09:45;100903.91;;;0.06;100.00
47897;BME280;39629;51.400;5.494;2022-12-11T05:14:50;100898.69;;;0.05;100.00
47897;BME280;39629;51.400;5.494;2022-12-11T05:19:53;100899.59;;;0.07;100.00
47897;BME280;39629;51.400;5.494;2022-12-11T05:24:54;100896.03;;;0.03;100.00
47897;BME280;39629;51.400;5.494;2022-12-11T05:29:56;100894.38;;;0.05;100.00
47897;BME280;39629;51.400;5.494;2022-12-11T05:34:59;100890.28;;;0.10;100.00
47897;BME280;39629;51.400;5.494;2022-12-11T05:40:03;100889.13;;;0.04;100.00
47897;BME280;39629;51.400;5.494;2022-12-11T05:45:06;100893.69;;;0.09;100.00
47897;BME280;39629;51.400;5.494;2022-12-11T05:50:09;100903.97;;;0.08;100.00
47897;BME280;39629;51.400;5.494;2022-12-11T05:55:11;100902.47;;;0.13;100.00
47897;BME280;39629;51.400;5.494;2022-12-11T06:00:13;100898.09;;;0.12;100.00
47897;BME280;39629;51.400;5.494;2022-12-11T06:05:16;100899.66;;;0.08;100.00
47897;BME280;39629;51.400;5.494;2022-12-11T06:10:17;100905.00;;;0.11;100.00
47897;BME280;39629;51.400;5.494;2022-12-11T06:15:19;100903.28;;;0.12;100.00
47897;BME280;39629;51.400;5.494;2022-12-11T06:20:22;100896.47;;;0.14;100.00
47897;BME280;39629;51.400;5.494;2022-12-11T06:25:24;100898.84;;;0.09;100.00
47897;BME280;39629;51.400;5.494;2022-12-11T06:30:26;100902.47;;;0.13;100.00
47897;BME280;39629;51.400;5.494;2022-12-11T06:35:29;100896.31;;;0.11;100.00
47897;BME280;39629;51.400;5.494;2022-12-11T06:40:30;100899.75;;;0.10;100.00
47897;BME280;39629;51.400;5.494;2022-12-11T06:45:32;100889.53;;;0.13;100.00
47897;BME280;39629;51.400;5.494;2022-12-11T06:50:36;100883.31;;;0.09;100.00
47897;BME280;39629;51.400;5.494;2022-12-11T06:55:38;100887.81;;;0.13;100.00
47897;BME280;39629;51.400;5.494;2022-12-11T07:00:41;100893.72;;;0.11;100.00
47897;BME280;39629;51.400;5.494;2022-12-11T07:05:43;100898.09;;;0.12;100.00
47897;BME280;39629;51.400;5.494;2022-12-11T07:10:45;100907.44;;;0.08;100.00
47897;BME280;39629;51.400;5.494;2022-12-11T07:15:47;100910.09;;;0.10;100.00
47897;BME280;39629;51.400;5.494;2022-12-11T07:20:50;100917.03;;;0.11;100.00
47897;BME280;39629;51.400;5.494;2022-12-11T07:25:51;100917.72;;;0.07;100.00
47897;BME280;39629;51.400;5.494;2022-12-11T07:30:53;100913.38;;;0.06;100.00
47897;BME280;39629;51.400;5.494;2022-12-11T07:35:59;100930.53;;;0.04;100.00
47897;BME280;39629;51.400;5.494;2022-12-11T07:41:01;100931.34;;;0.03;100.00
47897;BME280;39629;51.400;5.494;2022-12-11T07:46:06;100915.88;;;0.04;100.00
47897;BME280;39629;51.400;5.494;2022-12-11T07:51:13;100921.69;;;-0.02;100.00
47897;BME280;39629;51.400;5.494;2022-12-11T07:56:18;100919.19;;;0.00;100.00
47897;BME280;39629;51.400;5.494;2022-12-11T08:01:21;100918.28;;;-0.00;100.00
47897;BME280;39629;51.400;5.494;2022-12-11T08:06:26;100920.75;;;-0.04;100.00
47897;BME280;39629;51.400;5.494;2022-12-11T08:11:29;100915.81;;;0.03;100.00
47897;BME280;39629;51.400;5.494;2022-12-11T08:16:31;100913.13;;;-0.00;100.00
47897;BME280;39629;51.400;5.494;2022-12-11T08:21:34;100919.88;;;-0.04;100.00
47897;BME280;39629;51.400;5.494;2022-12-11T08:26:36;100920.00;;;-0.01;100.00
47897;BME280;39629;51.400;5.494;2022-12-11T08:31:38;100925.31;;;0.02;100.00
47897;BME280;39629;51.400;5.494;2022-12-11T08:36:41;100923.59;;;0.03;100.00
47897;BME280;39629;51.400;5.494;2022-12-11T08:41:43;100910.91;;;0.09;100.00
47897;BME280;39629;51.400;5.494;2022-12-11T08:46:45;100919.88;;;0.17;100.00
47897;BME280;39629;51.400;5.494;2022-12-11T08:51:48;100909.16;;;0.08;100.00
47897;BME280;39629;51.400;5.494;2022-12-11T08:56:50;100911.03;;;0.12;100.00
47897;BME280;39629;51.400;5.494;2022-12-11T09:01:53;100909.41;;;0.14;100.00
47897;BME280;39629;51.400;5.494;2022-12-11T09:06:57;100911.16;;;0.15;100.00
47897;BME280;39629;51.400;5.494;2022-12-11T09:11:58;100903.09;;;0.07;100.00
47897;BME280;39629;51.400;5.494;2022-12-11T09:17:00;100907.13;;;0.22;100.00
47897;BME280;39629;51.400;5.494;2022-12-11T09:22:06;100901.81;;;0.19;100.00
47897;BME280;39629;51.400;5.494;2022-12-11T09:27:10;100908.19;;;0.27;100.00
47897;BME280;39629;51.400;5.494;2022-12-11T09:32:12;100895.75;;;0.18;100.00
47897;BME280;39629;51.400;5.494;2022-12-11T09:37:15;100899.84;;;0.34;100.00
47897;BME280;39629;51.400;5.494;2022-12-11T09:42:20;100909.13;;;0.29;100.00
47897;BME280;39629;51.400;5.494;2022-12-11T09:47:31;100898.75;;;0.29;100.00
47897;BME280;39629;51.400;5.494;2022-12-11T09:52:38;100903.44;;;0.38;100.00
47897;BME280;39629;51.400;5.494;2022-12-11T09:57:47;100902.44;;;0.34;100.00
47897;BME280;39629;51.400;5.494;2022-12-11T10:03:19;100891.25;;;0.35;100.00
47897;BME280;39629;51.400;5.494;2022-12-11T10:08:29;100888.31;;;0.26;100.00
47897;BME280;39629;51.400;5.494;2022-12-11T10:13:38;100884.94;;;0.28;100.00
47897;BME280;39629;51.400;5.494;2022-12-11T10:18:47;100874.66;;;0.30;100.00
47897;BME280;39629;51.400;5.494;2022-12-11T10:23:53;100882.03;;;0.42;100.00
47897;BME280;39629;51.400;5.494;2022-12-11T10:28:58;100887.44;;;0.48;100.00
47897;BME280;39629;51.400;5.494;2022-12-11T10:34:02;100895.50;;;0.56;100.00
47897;BME280;39629;51.400;5.494;2022-12-11T10:39:11;100893.38;;;0.45;100.00
47897;BME280;39629;51.400;5.494;2022-12-11T10:44:16;100888.41;;;0.50;100.00
47897;BME280;39629;51.400;5.494;2022-12-11T10:49:23;100885.31;;;0.60;100.00
47897;BME280;39629;51.400;5.494;2022-12-11T10:54:31;100877.31;;;0.77;100.00
47897;BME280;39629;51.400;5.494;2022-12-11T10:59:37;100879.38;;;0.63;100.00
47897;BME280;39629;51.400;5.494;2022-12-11T11:04:41;100871.00;;;0.70;100.00
47897;BME280;39629;51.400;5.494;2022-12-11T11:09:45;100863.59;;;0.79;100.00
47897;BME280;39629;51.400;5.494;2022-12-11T11:14:57;100867.47;;;0.68;100.00
47897;BME280;39629;51.400;5.494;2022-12-11T11:20:03;100859.13;;;0.75;100.00
47897;BME280;39629;51.400;5.494;2022-12-11T11:25:17;100859.63;;;0.89;100.00
47897;BME280;39629;51.400;5.494;2022-12-11T11:30:22;100853.84;;;0.96;100.00
47897;BME280;39629;51.400;5.494;2022-12-11T11:35:26;100853.59;;;0.90;100.00
47897;BME280;39629;51.400;5.494;2022-12-11T11:40:35;100846.22;;;1.01;100.00
47897;BME280;39629;51.400;5.494;2022-12-11T11:45:42;100839.03;;;1.42;100.00
47897;BME280;39629;51.400;5.494;2022-12-11T11:50:46;100849.84;;;1.30;100.00
47897;BME280;39629;51.400;5.494;2022-12-11T11:55:54;100844.78;;;1.09;100.00
47897;BME280;39629;51.400;5.494;2022-12-11T12:00:57;100842.31;;;1.12;100.00
47897;BME280;39629;51.400;5.494;2022-12-11T12:06:05;100832.75;;;1.10;100.00
47897;BME280;39629;51.400;5.494;2022-12-11T12:11:17;100820.44;;;1.30;100.00
47897;BME280;39629;51.400;5.494;2022-12-11T12:16:26;100819.63;;;1.31;100.00
47897;BME280;39629;51.400;5.494;2022-12-11T12:21:35;100813.06;;;1.68;100.00
47897;BME280;39629;51.400;5.494;2022-12-11T12:26:43;100807.31;;;1.51;100.00
47897;BME280;39629;51.400;5.494;2022-12-11T12:31:54;100807.53;;;1.31;100.00
47897;BME280;39629;51.400;5.494;2022-12-11T12:37:06;100806.66;;;1.57;100.00
47897;BME280;39629;51.400;5.494;2022-12-11T12:42:20;100805.81;;;1.58;100.00
47897;BME280;39629;51.400;5.494;2022-12-11T12:47:25;100806.13;;;1.41;100.00
47897;BME280;39629;51.400;5.494;2022-12-11T12:52:29;100808.78;;;1.43;100.00
47897;BME280;39629;51.400;5.494;2022-12-11T12:57:34;100814.28;;;1.26;100.00
47897;BME280;39629;51.400;5.494;2022-12-11T13:02:37;100808.22;;;1.26;100.00
47897;BME280;39629;51.400;5.494;2022-12-11T13:07:47;100808.69;;;1.14;100.00
47897;BME280;39629;51.400;5.494;2022-12-11T13:12:51;100798.72;;;1.26;100.00
47897;BME280;39629;51.400;5.494;2022-12-11T13:17:53;100798.13;;;1.33;100.00
47897;BME280;39629;51.400;5.494;2022-12-11T13:23:08;100794.56;;;1.06;100.00
47897;BME280;39629;51.400;5.494;2022-12-11T13:28:31;100812.34;;;0.95;100.00
47897;BME280;39629;51.400;5.494;2022-12-11T13:33:39;100819.16;;;0.93;100.00
47897;BME280;39629;51.400;5.494;2022-12-11T13:38:46;100816.31;;;0.85;100.00
47897;BME280;39629;51.400;5.494;2022-12-11T13:43:51;100810.84;;;1.02;100.00
47897;BME280;39629;51.400;5.494;2022-12-11T13:48:54;100812.47;;;0.99;100.00
47897;BME280;39629;51.400;5.494;2022-12-11T13:54:13;100826.97;;;0.70;100.00
47897;BME280;39629;51.400;5.494;2022-12-11T13:59:23;100832.13;;;0.46;100.00
47897;BME280;39629;51.400;5.494;2022-12-11T14:04:26;100828.28;;;0.59;100.00
47897;BME280;39629;51.400;5.494;2022-12-11T14:09:29;100829.09;;;0.58;100.00
47897;BME280;39629;51.400;5.494;2022-12-11T14:14:39;100824.19;;;0.64;100.00
47897;BME280;39629;51.400;5.494;2022-12-11T14:19:45;100825.75;;;0.60;100.00
47897;BME280;39629;51.400;5.494;2022-12-11T14:24:49;100832.06;;;0.67;100.00
47897;BME280;39629;51.400;5.494;2022-12-11T14:29:53;100831.59;;;0.55;100.00
47897;BME280;39629;51.400;5.494;2022-12-11T14:34:55;100833.81;;;0.45;100.00
47897;BME280;39629;51.400;5.494;2022-12-11T14:40:01;100841.03;;;0.54;100.00
47897;BME280;39629;51.400;5.494;2022-12-11T14:45:16;100845.00;;;0.44;100.00
47897;BME280;39629;51.400;5.494;2022-12-11T14:50:21;100838.25;;;0.25;100.00
47897;BME280;39629;51.400;5.494;2022-12-11T14:55:28;100842.41;;;0.44;100.00
47897;BME280;39629;51.400;5.494;2022-12-11T15:00:34;100846.13;;;0.28;100.00
47897;BME280;39629;51.400;5.494;2022-12-11T15:05:48;100848.81;;;0.31;100.00
47897;BME280;39629;51.400;5.494;2022-12-11T15:11:05;100851.88;;;0.21;100.00
47897;BME280;39629;51.400;5.494;2022-12-11T15:16:13;100862.41;;;0.26;100.00
47897;BME280;39629;51.400;5.494;2022-12-11T15:21:15;100855.34;;;0.22;100.00
47897;BME280;39629;51.400;5.494;2022-12-11T15:26:17;100850.22;;;0.23;100.00
47897;BME280;39629;51.400;5.494;2022-12-11T15:31:25;100857.72;;;0.15;100.00
47897;BME280;39629;51.400;5.494;2022-12-11T15:36:32;100854.34;;;0.18;100.00
47897;BME280;39629;51.400;5.494;2022-12-11T15:41:35;100860.25;;;0.14;100.00
47897;BME280;39629;51.400;5.494;2022-12-11T15:46:38;100860.34;;;0.17;100.00
47897;BME280;39629;51.400;5.494;2022-12-11T15:51:39;100856.00;;;0.16;100.00
47897;BME280;39629;51.400;5.494;2022-12-11T15:56:41;100862.03;;;0.17;100.00
47897;BME280;39629;51.400;5.494;2022-12-11T16:01:44;100862.44;;;0.05;100.00
47897;BME280;39629;51.400;5.494;2022-12-11T16:06:46;100861.69;;;0.07;100.00
47897;BME280;39629;51.400;5.494;2022-12-11T16:11:47;100863.97;;;-0.00;100.00
47897;BME280;39629;51.400;5.494;2022-12-11T16:16:50;100864.72;;;-0.03;100.00
47897;BME280;39629;51.400;5.494;2022-12-11T16:21:52;100863.91;;;-0.02;100.00
47897;BME280;39629;51.400;5.494;2022-12-11T16:26:53;100855.69;;;-0.13;100.00
47897;BME280;39629;51.400;5.494;2022-12-11T16:31:57;100864.53;;;-0.08;100.00
47897;BME280;39629;51.400;5.494;2022-12-11T16:36:59;100853.94;;;-0.14;100.00
47897;BME280;39629;51.400;5.494;2022-12-11T16:42:00;100851.78;;;-0.03;100.00
47897;BME280;39629;51.400;5.494;2022-12-11T16:47:03;100851.59;;;-0.08;100.00
47897;BME280;39629;51.400;5.494;2022-12-11T16:52:05;100861.78;;;-0.12;100.00
47897;BME280;39629;51.400;5.494;2022-12-11T16:57:07;100864.22;;;-0.15;100.00
47897;BME280;39629;51.400;5.494;2022-12-11T17:02:10;100853.88;;;-0.15;100.00
47897;BME280;39629;51.400;5.494;2022-12-11T17:07:12;100853.94;;;-0.14;100.00
47897;BME280;39629;51.400;5.494;2022-12-11T17:12:13;100844.31;;;-0.18;100.00
47897;BME280;39629;51.400;5.494;2022-12-11T17:17:16;100835.59;;;-0.20;100.00
47897;BME280;39629;51.400;5.494;2022-12-11T17:22:18;100839.81;;;-0.22;100.00
47897;BME280;39629;51.400;5.494;2022-12-11T17:27:20;100843.34;;;-0.20;100.00
47897;BME280;39629;51.400;5.494;2022-12-11T17:32:23;100839.69;;;-0.25;100.00
47897;BME280;39629;51.400;5.494;2022-12-11T17:37:25;100839.81;;;-0.22;100.00
47897;BME280;39629;51.400;5.494;2022-12-11T17:42:26;100844.22;;;-0.20;100.00
47897;BME280;39629;51.400;5.494;2022-12-11T17:47:29;100830.34;;;-0.22;100.00
47897;BME280;39629;51.400;5.494;2022-12-11T17:52:31;100833.00;;;-0.20;100.00
47897;BME280;39629;51.400;5.494;2022-12-11T17:57:33;100842.31;;;-0.24;100.00
47897;BME280;39629;51.400;5.494;2022-12-11T18:02:38;100844.78;;;-0.27;100.00
47897;BME280;39629;51.400;5.494;2022-12-11T18:07:40;100846.81;;;-0.20;100.00
47897;BME280;39629;51.400;5.494;2022-12-11T18:12:41;100845.00;;;-0.22;100.00
47897;BME280;39629;51.400;5.494;2022-12-11T18:17:44;100843.03;;;-0.28;100.00
47897;BME280;39629;51.400;5.494;2022-12-11T18:22:46;100839.56;;;-0.28;100.00
47897;BME280;39629;51.400;5.494;2022-12-11T18:27:48;100843.09;;;-0.26;100.00
47897;BME280;39629;51.400;5.494;2022-12-11T18:32:51;100850.88;;;-0.26;100.00
47897;BME280;39629;51.400;5.494;2022-12-11T18:37:52;100837.84;;;-0.28;100.00
47897;BME280;39629;51.400;5.494;2022-12-11T18:42:54;100831.50;;;-0.36;100.00
47897;BME280;39629;51.400;5.494;2022-12-11T18:47:57;100830.19;;;-0.26;100.00
47897;BME280;39629;51.400;5.494;2022-12-11T18:52:59;100834.38;;;-0.28;100.00
47897;BME280;39629;51.400;5.494;2022-12-11T18:58:01;100832.38;;;-0.36;100.00
47897;BME280;39629;51.400;5.494;2022-12-11T19:03:04;100841.75;;;-0.38;100.00
47897;BME280;39629;51.400;5.494;2022-12-11T19:08:05;100831.50;;;-0.36;100.00
47897;BME280;39629;51.400;5.494;2022-12-11T19:13:07;100829.69;;;-0.39;100.00
47897;BME280;39629;51.400;5.494;2022-12-11T19:18:10;100827.91;;;-0.40;100.00
47897;BME280;39629;51.400;5.494;2022-12-11T19:23:12;100836.34;;;-0.44;100.00
47897;BME280;39629;51.400;5.494;2022-12-11T19:28:14;100830.22;;;-0.46;100.00
47897;BME280;39629;51.400;5.494;2022-12-11T19:33:17;100833.88;;;-0.41;100.00
47897;BME280;39629;51.400;5.494;2022-12-11T19:38:18;100832.78;;;-0.46;100.00
47897;BME280;39629;51.400;5.494;2022-12-11T19:43:20;100848.47;;;-0.43;100.00
47897;BME280;39629;51.400;5.494;2022-12-11T19:48:23;100850.03;;;-0.46;100.00
47897;BME280;39629;51.400;5.494;2022-12-11T19:53:24;100837.91;;;-0.47;100.00
47897;BME280;39629;51.400;5.494;2022-12-11T19:58:26;100849.84;;;-0.51;100.00
47897;BME280;39629;51.400;5.494;2022-12-11T20:03:29;100853.00;;;-0.58;100.00
47897;BME280;39629;51.400;5.494;2022-12-11T20:08:32;100848.69;;;-0.58;100.00
47897;BME280;39629;51.400;5.494;2022-12-11T20:13:34;100840.88;;;-0.59;100.00
47897;BME280;39629;51.400;5.494;2022-12-11T20:18:37;100845.25;;;-0.58;100.00
47897;BME280;39629;51.400;5.494;2022-12-11T20:23:39;100848.00;;;-0.54;100.00
47897;BME280;39629;51.400;5.494;2022-12-11T20:28:41;100863.19;;;-0.61;100.00
47897;BME280;39629;51.400;5.494;2022-12-11T20:33:45;100856.31;;;-0.61;100.00
47897;BME280;39629;51.400;5.494;2022-12-11T20:38:48;100862.25;;;-0.63;100.00
47897;BME280;39629;51.400;5.494;2022-12-11T20:43:50;100860.34;;;-0.67;100.00
47897;BME280;39629;51.400;5.494;2022-12-11T20:48:55;100857.56;;;-0.72;100.00
47897;BME280;39629;51.400;5.494;2022-12-11T20:53:58;100853.28;;;-0.72;100.00
47897;BME280;39629;51.400;5.494;2022-12-11T20:59:00;100863.19;;;-0.81;100.00
47897;BME280;39629;51.400;5.494;2022-12-11T21:04:03;100868.25;;;-0.84;100.00
47897;BME280;39629;51.400;5.494;2022-12-11T21:09:07;100878.44;;;-0.87;100.00
47897;BME280;39629;51.400;5.494;2022-12-11T21:14:09;100882.13;;;-0.82;100.00
47897;BME280;39629;51.400;5.494;2022-12-11T21:19:13;100874.22;;;-0.85;100.00
47897;BME280;39629;51.400;5.494;2022-12-11T21:24:18;100886.19;;;-0.87;100.00
47897;BME280;39629;51.400;5.494;2022-12-11T21:29:20;100886.06;;;-0.90;100.00
47897;BME280;39629;51.400;5.494;2022-12-11T21:34:23;100890.63;;;-0.84;100.00
47897;BME280;39629;51.400;5.494;2022-12-11T21:39:26;100890.69;;;-0.83;100.00
47897;BME280;39629;51.400;5.494;2022-12-11T21:44:28;100886.41;;;-0.82;100.00
47897;BME280;39629;51.400;5.494;2022-12-11T21:49:33;100883.75;;;-0.84;100.00
47897;BME280;39629;51.400;5.494;2022-12-11T21:54:34;100885.53;;;-0.83;100.00
47897;BME280;39629;51.400;5.494;2022-12-11T21:59:36;100879.38;;;-0.85;100.00
47897;BME280;39629;51.400;5.494;2022-12-11T22:04:39;100880.91;;;-0.90;100.00
47897;BME280;39629;51.400;5.494;2022-12-11T22:09:41;100894.56;;;-0.93;100.00
47897;BME280;39629;51.400;5.494;2022-12-11T22:14:43;100898.84;;;-0.93;100.00
47897;BME280;39629;51.400;5.494;2022-12-11T22:19:47;100896.06;;;-0.98;100.00
47897;BME280;39629;51.400;5.494;2022-12-11T22:24:51;100897.09;;;-0.94;100.00
47897;BME280;39629;51.400;5.494;2022-12-11T22:29:52;100900.53;;;-0.94;100.00
47897;BME280;39629;51.400;5.494;2022-12-11T22:34:56;100892.44;;;-1.01;100.00
47897;BME280;39629;51.400;5.494;2022-12-11T22:39:57;100894.34;;;-0.97;100.00
47897;BME280;39629;51.400;5.494;2022-12-11T22:44:59;100902.38;;;-0.91;100.00
47897;BME280;39629;51.400;5.494;2022-12-11T22:50:02;100895.25;;;-0.97;100.00
47897;BME280;39629;51.400;5.494;2022-12-11T22:55:05;100888.09;;;-1.02;100.00
47897;BME280;39629;51.400;5.494;2022-12-11T23:00:09;100893.09;;;-1.06;100.00
47897;BME280;39629;51.400;5.494;2022-12-11T23:05:14;100887.13;;;-1.05;100.00
47897;BME280;39629;51.400;5.494;2022-12-11T23:10:16;100891.97;;;-1.12;100.00
47897;BME280;39629;51.400;5.494;2022-12-11T23:15:17;100888.16;;;-1.20;100.00
47897;BME280;39629;51.400;5.494;2022-12-11T23:20:20;100892.63;;;-1.36;100.00
47897;BME280;39629;51.400;5.494;2022-12-11T23:25:22;100885.31;;;-1.45;100.00
47897;BME280;39629;51.400;5.494;2022-12-11T23:30:24;100891.09;;;-1.68;100.00
47897;BME280;39629;51.400;5.494;2022-12-11T23:35:27;100901.66;;;-1.82;100.00
47897;BME280;39629;51.400;5.494;2022-12-11T23:40:28;100903.72;;;-1.93;100.00
47897;BME280;39629;51.400;5.494;2022-12-11T23:45:30;100912.19;;;-1.95;100.00
47897;BME280;39629;51.400;5.494;2022-12-11T23:50:33;100913.09;;;-2.11;100.00
47897;BME280;39629;51.400;5.494;2022-12-11T23:55:34;100912.50;;;-2.24;100.00
